sensor_id;sensor_type;location;lat;lon;timestamp;P1;durP1;ratioP1;P2;durP2;ratioP2
34541;SDS011;20784;51.332;12.410;2023-12-04T00:05:28;23.27;;;12.48;;
34541;SDS011;20784;51.332;12.410;2023-12-04T00:11:05;24.08;;;11.52;;
34541;SDS011;20784;51.332;12.410;2023-12-04T00:14:05;25.13;;;12.20;;
34541;SDS011;20784;51.332;12.410;2023-12-04T00:16:57;30.65;;;14.13;;
34541;SDS011;20784;51.332;12.410;2023-12-04T00:19:28;27.85;;;13.00;;
34541;SDS011;20784;51.332;12.410;2023-12-04T00:22:24;24.27;;;13.30;;
34541;SDS011;20784;51.332;12.410;2023-12-04T00:28:25;28.42;;;13.10;;
34541;SDS011;20784;51.332;12.410;2023-12-04T00:37:56;27.27;;;12.68;;
34541;SDS011;20784;51.332;12.410;2023-12-04T00:40:50;26.60;;;13.25;;
34541;SDS011;20784;51.332;12.410;2023-12-04T00:43:52;25.88;;;13.43;;
34541;SDS011;20784;51.332;12.410;2023-12-04T01:18:47;24.42;;;12.60;;
34541;SDS011;20784;51.332;12.410;2023-12-04T01:22:10;29.23;;;13.95;;
34541;SDS011;20784;51.332;12.410;2023-12-04T01:24:59;25.80;;;12.68;;
34541;SDS011;20784;51.332;12.410;2023-12-04T01:27:28;28.63;;;13.02;;
34541;SDS011;20784;51.332;12.410;2023-12-04T01:29:54;25.55;;;13.13;;
34541;SDS011;20784;51.332;12.410;2023-12-04T01:32:30;24.05;;;12.77;;
34541;SDS011;20784;51.332;12.410;2023-12-04T01:34:57;26.38;;;12.57;;
34541;SDS011;20784;51.332;12.410;2023-12-04T01:37:23;27.02;;;13.50;;
34541;SDS011;20784;51.332;12.410;2023-12-04T01:39:49;29.23;;;14.25;;
34541;SDS011;20784;51.332;12.410;2023-12-04T01:42:15;30.02;;;12.82;;
34541;SDS011;20784;51.332;12.410;2023-12-04T01:44:43;26.67;;;13.48;;
34541;SDS011;20784;51.332;12.410;2023-12-04T01:47:15;25.50;;;12.93;;
34541;SDS011;20784;51.332;12.410;2023-12-04T01:49:45;26.40;;;13.25;;
34541;SDS011;20784;51.332;12.410;2023-12-04T01:52:18;25.80;;;13.23;;
34541;SDS011;20784;51.332;12.410;2023-12-04T01:55:19;24.52;;;12.07;;
34541;SDS011;20784;51.332;12.410;2023-12-04T01:57:52;26.17;;;11.50;;
34541;SDS011;20784;51.332;12.410;2023-12-04T02:00:28;27.65;;;13.52;;
34541;SDS011;20784;51.332;12.410;2023-12-04T02:03:13;22.08;;;11.13;;
34541;SDS011;20784;51.332;12.410;2023-12-04T02:05:49;22.27;;;11.38;;
34541;SDS011;20784;51.332;12.410;2023-12-04T02:08:27;24.77;;;11.48;;
34541;SDS011;20784;51.332;12.410;2023-12-04T02:11:04;25.05;;;12.93;;
34541;SDS011;20784;51.332;12.410;2023-12-04T02:13:37;22.98;;;11.63;;
34541;SDS011;20784;51.332;12.410;2023-12-04T02:16:04;21.42;;;11.45;;
34541;SDS011;20784;51.332;12.410;2023-12-04T02:18:38;25.17;;;11.70;;
34541;SDS011;20784;51.332;12.410;2023-12-04T02:21:21;23.98;;;11.98;;
34541;SDS011;20784;51.332;12.410;2023-12-04T02:23:58;24.13;;;11.70;;
34541;SDS011;20784;51.332;12.410;2023-12-04T02:26:39;21.83;;;11.00;;
34541;SDS011;20784;51.332;12.410;2023-12-04T02:32:33;23.60;;;11.27;;
34541;SDS011;20784;51.332;12.410;2023-12-04T02:35:06;16.92;;;8.48;;
34541;SDS011;20784;51.332;12.410;2023-12-04T02:37:40;23.42;;;10.95;;
34541;SDS011;20784;51.332;12.410;2023-12-04T02:40:10;25.50;;;11.70;;
34541;SDS011;20784;51.332;12.410;2023-12-04T02:42:47;24.48;;;11.20;;
34541;SDS011;20784;51.332;12.410;2023-12-04T02:45:35;19.40;;;9.75;;
34541;SDS011;20784;51.332;12.410;2023-12-04T02:48:02;26.40;;;11.63;;
34541;SDS011;20784;51.332;12.410;2023-12-04T02:50:28;22.17;;;10.27;;
34541;SDS011;20784;51.332;12.410;2023-12-04T02:52:54;22.95;;;11.57;;
34541;SDS011;20784;51.332;12.410;2023-12-04T02:55:33;18.88;;;10.30;;
34541;SDS011;20784;51.332;12.410;2023-12-04T02:58:02;21.30;;;10.48;;
34541;SDS011;20784;51.332;12.410;2023-12-04T03:00:31;19.73;;;10.30;;
34541;SDS011;20784;51.332;12.410;2023-12-04T03:03:17;20.55;;;9.95;;
34541;SDS011;20784;51.332;12.410;2023-12-04T03:05:50;23.60;;;12.43;;
34541;SDS011;20784;51.332;12.410;2023-12-04T03:08:19;21.65;;;11.15;;
34541;SDS011;20784;51.332;12.410;2023-12-04T03:10:45;19.27;;;10.18;;
34541;SDS011;20784;51.332;12.410;2023-12-04T03:13:11;18.08;;;8.05;;
34541;SDS011;20784;51.332;12.410;2023-12-04T03:15:37;20.35;;;10.40;;
34541;SDS011;20784;51.332;12.410;2023-12-04T03:18:08;18.50;;;8.73;;
34541;SDS011;20784;51.332;12.410;2023-12-04T03:20:40;19.27;;;10.25;;
34541;SDS011;20784;51.332;12.410;2023-12-04T03:23:09;19.63;;;9.77;;
34541;SDS011;20784;51.332;12.410;2023-12-04T03:25:35;11.32;;;7.05;;
34541;SDS011;20784;51.332;12.410;2023-12-04T03:28:09;19.75;;;10.50;;
34541;SDS011;20784;51.332;12.410;2023-12-04T03:30:50;19.52;;;9.95;;
34541;SDS011;20784;51.332;12.410;2023-12-04T03:33:41;17.10;;;9.05;;
34541;SDS011;20784;51.332;12.410;2023-12-04T03:36:12;17.95;;;8.32;;
34541;SDS011;20784;51.332;12.410;2023-12-04T03:38:38;18.55;;;9.88;;
34541;SDS011;20784;51.332;12.410;2023-12-04T03:41:24;22.58;;;10.02;;
34541;SDS011;20784;51.332;12.410;2023-12-04T03:43:55;20.05;;;10.77;;
34541;SDS011;20784;51.332;12.410;2023-12-04T03:46:34;21.10;;;10.73;;
34541;SDS011;20784;51.332;12.410;2023-12-04T03:49:35;23.08;;;9.55;;
34541;SDS011;20784;51.332;12.410;2023-12-04T03:52:18;18.85;;;10.25;;
34541;SDS011;20784;51.332;12.410;2023-12-04T03:55:11;17.58;;;9.52;;
34541;SDS011;20784;51.332;12.410;2023-12-04T03:57:40;18.85;;;9.90;;
34541;SDS011;20784;51.332;12.410;2023-12-04T04:03:23;16.23;;;8.77;;
34541;SDS011;20784;51.332;12.410;2023-12-04T04:06:01;19.45;;;9.38;;
34541;SDS011;20784;51.332;12.410;2023-12-04T04:08:51;21.70;;;10.13;;
34541;SDS011;20784;51.332;12.410;2023-12-04T04:11:22;17.67;;;9.57;;
34541;SDS011;20784;51.332;12.410;2023-12-04T04:14:08;17.75;;;9.15;;
34541;SDS011;20784;51.332;12.410;2023-12-04T04:16:55;18.30;;;10.10;;
34541;SDS011;20784;51.332;12.410;2023-12-04T04:19:32;18.00;;;9.55;;
34541;SDS011;20784;51.332;12.410;2023-12-04T04:22:29;18.20;;;8.77;;
34541;SDS011;20784;51.332;12.410;2023-12-04T04:25:20;21.58;;;9.95;;
34541;SDS011;20784;51.332;12.410;2023-12-04T04:28:09;16.77;;;9.00;;
34541;SDS011;20784;51.332;12.410;2023-12-04T04:30:52;17.20;;;9.57;;
34541;SDS011;20784;51.332;12.410;2023-12-04T04:33:24;16.80;;;8.85;;
34541;SDS011;20784;51.332;12.410;2023-12-04T04:35:57;17.88;;;9.70;;
34541;SDS011;20784;51.332;12.410;2023-12-04T04:38:33;19.05;;;9.65;;
34541;SDS011;20784;51.332;12.410;2023-12-04T04:40:59;17.58;;;8.98;;
34541;SDS011;20784;51.332;12.410;2023-12-04T04:43:28;19.05;;;9.48;;
34541;SDS011;20784;51.332;12.410;2023-12-04T04:46:00;18.60;;;9.18;;
34541;SDS011;20784;51.332;12.410;2023-12-04T04:48:44;17.70;;;9.35;;
34541;SDS011;20784;51.332;12.410;2023-12-04T04:51:10;18.35;;;9.90;;
34541;SDS011;20784;51.332;12.410;2023-12-04T04:53:41;19.15;;;9.63;;
34541;SDS011;20784;51.332;12.410;2023-12-04T04:56:35;16.92;;;8.60;;
34541;SDS011;20784;51.332;12.410;2023-12-04T04:59:01;17.50;;;8.82;;
34541;SDS011;20784;51.332;12.410;2023-12-04T05:01:26;17.05;;;9.20;;
34541;SDS011;20784;51.332;12.410;2023-12-04T05:03:55;16.00;;;8.50;;
34541;SDS011;20784;51.332;12.410;2023-12-04T05:09:14;18.05;;;8.43;;
34541;SDS011;20784;51.332;12.410;2023-12-04T05:11:43;18.38;;;8.75;;
34541;SDS011;20784;51.332;12.410;2023-12-04T05:14:13;16.95;;;8.55;;
34541;SDS011;20784;51.332;12.410;2023-12-04T05:17:01;19.85;;;9.52;;
34541;SDS011;20784;51.332;12.410;2023-12-04T05:20:03;14.27;;;7.68;;
34541;SDS011;20784;51.332;12.410;2023-12-04T05:22:41;18.30;;;8.63;;
34541;SDS011;20784;51.332;12.410;2023-12-04T05:25:12;16.13;;;8.23;;
34541;SDS011;20784;51.332;12.410;2023-12-04T05:27:42;16.73;;;7.55;;
34541;SDS011;20784;51.332;12.410;2023-12-04T05:30:20;14.40;;;7.00;;
34541;SDS011;20784;51.332;12.410;2023-12-04T05:32:46;11.35;;;7.25;;
34541;SDS011;20784;51.332;12.410;2023-12-04T05:35:14;12.23;;;6.80;;
34541;SDS011;20784;51.332;12.410;2023-12-04T05:45:54;11.23;;;6.10;;
34541;SDS011;20784;51.332;12.410;2023-12-04T05:48:26;14.15;;;6.88;;
34541;SDS011;20784;51.332;12.410;2023-12-04T05:51:00;12.40;;;6.00;;
34541;SDS011;20784;51.332;12.410;2023-12-04T05:53:34;17.20;;;7.68;;
34541;SDS011;20784;51.332;12.410;2023-12-04T05:56:00;12.93;;;6.85;;
34541;SDS011;20784;51.332;12.410;2023-12-04T05:58:26;15.43;;;7.07;;
34541;SDS011;20784;51.332;12.410;2023-12-04T06:00:51;12.98;;;6.90;;
34541;SDS011;20784;51.332;12.410;2023-12-04T06:03:17;11.65;;;5.35;;
34541;SDS011;20784;51.332;12.410;2023-12-04T06:05:42;12.80;;;6.57;;
34541;SDS011;20784;51.332;12.410;2023-12-04T06:08:09;12.00;;;6.18;;
34541;SDS011;20784;51.332;12.410;2023-12-04T06:10:35;11.00;;;5.30;;
34541;SDS011;20784;51.332;12.410;2023-12-04T06:13:08;12.13;;;5.80;;
34541;SDS011;20784;51.332;12.410;2023-12-04T06:15:34;10.82;;;6.13;;
34541;SDS011;20784;51.332;12.410;2023-12-04T06:18:02;10.10;;;5.40;;
34541;SDS011;20784;51.332;12.410;2023-12-04T06:20:29;8.52;;;5.30;;
34541;SDS011;20784;51.332;12.410;2023-12-04T06:23:00;10.77;;;6.20;;
34541;SDS011;20784;51.332;12.410;2023-12-04T06:25:30;12.43;;;5.60;;
34541;SDS011;20784;51.332;12.410;2023-12-04T06:27:58;12.23;;;6.05;;
34541;SDS011;20784;51.332;12.410;2023-12-04T06:30:28;12.52;;;5.82;;
34541;SDS011;20784;51.332;12.410;2023-12-04T06:35:53;11.55;;;6.10;;
34541;SDS011;20784;51.332;12.410;2023-12-04T06:38:25;8.90;;;5.05;;
34541;SDS011;20784;51.332;12.410;2023-12-04T06:43:19;10.20;;;5.10;;
34541;SDS011;20784;51.332;12.410;2023-12-04T06:45:48;9.80;;;5.28;;
34541;SDS011;20784;51.332;12.410;2023-12-04T06:48:19;10.32;;;5.88;;
34541;SDS011;20784;51.332;12.410;2023-12-04T06:50:48;12.93;;;6.28;;
34541;SDS011;20784;51.332;12.410;2023-12-04T06:55:42;13.15;;;6.60;;
34541;SDS011;20784;51.332;12.410;2023-12-04T06:58:08;12.95;;;6.07;;
34541;SDS011;20784;51.332;12.410;2023-12-04T07:00:33;12.45;;;6.32;;
34541;SDS011;20784;51.332;12.410;2023-12-04T07:02:59;12.80;;;6.10;;
34541;SDS011;20784;51.332;12.410;2023-12-04T07:05:27;11.30;;;6.97;;
34541;SDS011;20784;51.332;12.410;2023-12-04T07:07:53;12.32;;;6.80;;
34541;SDS011;20784;51.332;12.410;2023-12-04T07:10:21;13.10;;;6.43;;
34541;SDS011;20784;51.332;12.410;2023-12-04T07:13:36;14.70;;;7.15;;
34541;SDS011;20784;51.332;12.410;2023-12-04T07:16:29;11.20;;;6.13;;
34541;SDS011;20784;51.332;12.410;2023-12-04T07:23:16;13.20;;;7.22;;
34541;SDS011;20784;51.332;12.410;2023-12-04T07:38:49;17.25;;;8.60;;
34541;SDS011;20784;51.332;12.410;2023-12-04T07:50:58;17.13;;;8.43;;
34541;SDS011;20784;51.332;12.410;2023-12-04T08:01:44;17.92;;;8.35;;
34541;SDS011;20784;51.332;12.410;2023-12-04T08:08:57;13.52;;;7.28;;
34541;SDS011;20784;51.332;12.410;2023-12-04T08:26:13;13.20;;;6.88;;
34541;SDS011;20784;51.332;12.410;2023-12-04T08:29:00;13.80;;;7.10;;
34541;SDS011;20784;51.332;12.410;2023-12-04T08:35:45;15.15;;;7.88;;
34541;SDS011;20784;51.332;12.410;2023-12-04T08:38:33;16.02;;;8.63;;
34541;SDS011;20784;51.332;12.410;2023-12-04T08:41:11;15.25;;;8.07;;
34541;SDS011;20784;51.332;12.410;2023-12-04T08:43:43;15.77;;;8.57;;
34541;SDS011;20784;51.332;12.410;2023-12-04T08:47:23;13.00;;;7.88;;
34541;SDS011;20784;51.332;12.410;2023-12-04T08:50:20;15.70;;;7.25;;
34541;SDS011;20784;51.332;12.410;2023-12-04T08:53:41;14.18;;;7.72;;
34541;SDS011;20784;51.332;12.410;2023-12-04T08:56:33;16.52;;;7.63;;
34541;SDS011;20784;51.332;12.410;2023-12-04T08:59:49;13.27;;;7.18;;
34541;SDS011;20784;51.332;12.410;2023-12-04T09:09:55;13.93;;;7.32;;
34541;SDS011;20784;51.332;12.410;2023-12-04T09:12:35;21.15;;;8.57;;
34541;SDS011;20784;51.332;12.410;2023-12-04T09:19:16;13.65;;;7.18;;
34541;SDS011;20784;51.332;12.410;2023-12-04T09:22:20;15.80;;;7.90;;
34541;SDS011;20784;51.332;12.410;2023-12-04T09:25:14;11.60;;;7.22;;
34541;SDS011;20784;51.332;12.410;2023-12-04T09:28:00;11.77;;;6.72;;
34541;SDS011;20784;51.332;12.410;2023-12-04T09:37:47;12.18;;;6.43;;
34541;SDS011;20784;51.332;12.410;2023-12-04T09:40:55;12.32;;;6.47;;
34541;SDS011;20784;51.332;12.410;2023-12-04T09:46:29;11.65;;;6.70;;
34541;SDS011;20784;51.332;12.410;2023-12-04T09:56:21;12.65;;;6.28;;
34541;SDS011;20784;51.332;12.410;2023-12-04T10:02:50;10.15;;;6.30;;
34541;SDS011;20784;51.332;12.410;2023-12-04T10:12:26;10.57;;;5.78;;
34541;SDS011;20784;51.332;12.410;2023-12-04T10:18:50;12.60;;;6.43;;
34541;SDS011;20784;51.332;12.410;2023-12-04T10:25:21;12.50;;;7.03;;
34541;SDS011;20784;51.332;12.410;2023-12-04T10:28:30;11.90;;;6.57;;
34541;SDS011;20784;51.332;12.410;2023-12-04T10:34:28;11.27;;;6.20;;
34541;SDS011;20784;51.332;12.410;2023-12-04T10:37:41;11.25;;;6.60;;
34541;SDS011;20784;51.332;12.410;2023-12-04T10:47:01;10.82;;;5.13;;
34541;SDS011;20784;51.332;12.410;2023-12-04T11:04:31;8.07;;;4.63;;
34541;SDS011;20784;51.332;12.410;2023-12-04T11:07:09;9.57;;;5.63;;
34541;SDS011;20784;51.332;12.410;2023-12-04T11:09:49;9.57;;;4.77;;
34541;SDS011;20784;51.332;12.410;2023-12-04T11:12:36;8.13;;;4.68;;
34541;SDS011;20784;51.332;12.410;2023-12-04T11:22:31;8.38;;;5.10;;
34541;SDS011;20784;51.332;12.410;2023-12-04T11:25:17;8.52;;;5.25;;
34541;SDS011;20784;51.332;12.410;2023-12-04T11:28:05;8.20;;;5.07;;
34541;SDS011;20784;51.332;12.410;2023-12-04T11:31:41;9.77;;;4.63;;
34541;SDS011;20784;51.332;12.410;2023-12-04T11:34:21;7.90;;;5.10;;
34541;SDS011;20784;51.332;12.410;2023-12-04T11:37:29;9.02;;;5.15;;
34541;SDS011;20784;51.332;12.410;2023-12-04T11:40:25;9.68;;;5.20;;
34541;SDS011;20784;51.332;12.410;2023-12-04T11:50:00;11.68;;;6.13;;
34541;SDS011;20784;51.332;12.410;2023-12-04T12:00:47;9.63;;;5.53;;
34541;SDS011;20784;51.332;12.410;2023-12-04T13:16:57;13.55;;;7.63;;
34541;SDS011;20784;51.332;12.410;2023-12-04T13:19:58;15.43;;;7.63;;
34541;SDS011;20784;51.332;12.410;2023-12-04T13:25:55;15.68;;;7.00;;
34541;SDS011;20784;51.332;12.410;2023-12-04T13:32:00;17.88;;;7.32;;
34541;SDS011;20784;51.332;12.410;2023-12-04T13:34:49;16.02;;;7.80;;
34541;SDS011;20784;51.332;12.410;2023-12-04T13:40:56;14.30;;;6.97;;
34541;SDS011;20784;51.332;12.410;2023-12-04T13:43:47;14.02;;;7.15;;
34541;SDS011;20784;51.332;12.410;2023-12-04T13:47:11;17.00;;;7.63;;
34541;SDS011;20784;51.332;12.410;2023-12-04T14:00:45;12.15;;;6.90;;
34541;SDS011;20784;51.332;12.410;2023-12-04T14:10:44;17.13;;;7.40;;
34541;SDS011;20784;51.332;12.410;2023-12-04T14:13:49;11.00;;;5.57;;
34541;SDS011;20784;51.332;12.410;2023-12-04T14:27:21;8.57;;;5.25;;
34541;SDS011;20784;51.332;12.410;2023-12-04T14:30:12;11.25;;;5.85;;
34541;SDS011;20784;51.332;12.410;2023-12-04T14:35:43;12.77;;;5.57;;
34541;SDS011;20784;51.332;12.410;2023-12-04T14:43:49;8.13;;;4.50;;
34541;SDS011;20784;51.332;12.410;2023-12-04T14:46:28;7.80;;;4.22;;
34541;SDS011;20784;51.332;12.410;2023-12-04T14:49:55;10.52;;;3.88;;
34541;SDS011;20784;51.332;12.410;2023-12-04T14:52:26;8.70;;;3.92;;
34541;SDS011;20784;51.332;12.410;2023-12-04T14:55:13;8.80;;;4.35;;
34541;SDS011;20784;51.332;12.410;2023-12-04T14:58:11;8.35;;;4.10;;
34541;SDS011;20784;51.332;12.410;2023-12-04T15:01:02;8.20;;;4.80;;
34541;SDS011;20784;51.332;12.410;2023-12-04T15:07:20;7.40;;;3.85;;
34541;SDS011;20784;51.332;12.410;2023-12-04T15:17:04;11.55;;;5.38;;
34541;SDS011;20784;51.332;12.410;2023-12-04T15:23:11;6.95;;;4.25;;
34541;SDS011;20784;51.332;12.410;2023-12-04T15:25:55;11.18;;;4.20;;
34541;SDS011;20784;51.332;12.410;2023-12-04T15:29:25;8.13;;;4.18;;
34541;SDS011;20784;51.332;12.410;2023-12-04T15:32:07;8.68;;;4.38;;
34541;SDS011;20784;51.332;12.410;2023-12-04T15:34:32;8.57;;;4.60;;
34541;SDS011;20784;51.332;12.410;2023-12-04T15:37:08;8.68;;;4.25;;
34541;SDS011;20784;51.332;12.410;2023-12-04T15:39:34;10.30;;;5.47;;
34541;SDS011;20784;51.332;12.410;2023-12-04T15:45:22;8.88;;;5.25;;
34541;SDS011;20784;51.332;12.410;2023-12-04T15:48:00;10.05;;;4.85;;
34541;SDS011;20784;51.332;12.410;2023-12-04T15:50:25;8.65;;;4.97;;
34541;SDS011;20784;51.332;12.410;2023-12-04T15:52:52;9.75;;;5.13;;
34541;SDS011;20784;51.332;12.410;2023-12-04T15:55:17;8.90;;;5.35;;
34541;SDS011;20784;51.332;12.410;2023-12-04T15:57:45;10.30;;;5.45;;
34541;SDS011;20784;51.332;12.410;2023-12-04T16:00:14;12.63;;;6.22;;
34541;SDS011;20784;51.332;12.410;2023-12-04T16:02:43;13.88;;;6.93;;
34541;SDS011;20784;51.332;12.410;2023-12-04T16:05:12;11.98;;;6.22;;
34541;SDS011;20784;51.332;12.410;2023-12-04T16:07:38;16.33;;;7.22;;
34541;SDS011;20784;51.332;12.410;2023-12-04T16:10:07;12.93;;;7.68;;
34541;SDS011;20784;51.332;12.410;2023-12-04T16:12:42;11.98;;;7.05;;
34541;SDS011;20784;51.332;12.410;2023-12-04T16:15:14;14.40;;;6.82;;
34541;SDS011;20784;51.332;12.410;2023-12-04T16:17:52;12.20;;;6.72;;
34541;SDS011;20784;51.332;12.410;2023-12-04T16:20:41;15.07;;;7.78;;
34541;SDS011;20784;51.332;12.410;2023-12-04T16:23:17;13.25;;;7.63;;
34541;SDS011;20784;51.332;12.410;2023-12-04T16:29:24;18.10;;;8.02;;
34541;SDS011;20784;51.332;12.410;2023-12-04T16:32:19;16.17;;;8.90;;
34541;SDS011;20784;51.332;12.410;2023-12-04T16:34:48;13.05;;;8.02;;
34541;SDS011;20784;51.332;12.410;2023-12-04T16:37:13;15.85;;;8.40;;
34541;SDS011;20784;51.332;12.410;2023-12-04T16:39:40;16.63;;;7.88;;
34541;SDS011;20784;51.332;12.410;2023-12-04T16:42:23;17.20;;;8.32;;
34541;SDS011;20784;51.332;12.410;2023-12-04T16:45:02;16.15;;;7.93;;
34541;SDS011;20784;51.332;12.410;2023-12-04T16:47:46;14.93;;;7.78;;
34541;SDS011;20784;51.332;12.410;2023-12-04T16:50:37;15.10;;;8.32;;
34541;SDS011;20784;51.332;12.410;2023-12-04T16:53:08;16.13;;;7.82;;
34541;SDS011;20784;51.332;12.410;2023-12-04T16:55:54;15.30;;;7.82;;
34541;SDS011;20784;51.332;12.410;2023-12-04T16:58:45;15.27;;;8.88;;
34541;SDS011;20784;51.332;12.410;2023-12-04T17:01:17;18.35;;;11.70;;
34541;SDS011;20784;51.332;12.410;2023-12-04T17:03:43;14.98;;;8.63;;
34541;SDS011;20784;51.332;12.410;2023-12-04T17:06:31;19.80;;;10.05;;
34541;SDS011;20784;51.332;12.410;2023-12-04T17:09:29;19.05;;;8.55;;
34541;SDS011;20784;51.332;12.410;2023-12-04T17:12:14;13.88;;;8.48;;
34541;SDS011;20784;51.332;12.410;2023-12-04T17:15:08;16.23;;;8.13;;
34541;SDS011;20784;51.332;12.410;2023-12-04T17:17:53;15.93;;;8.45;;
34541;SDS011;20784;51.332;12.410;2023-12-04T17:20:21;18.92;;;9.07;;
34541;SDS011;20784;51.332;12.410;2023-12-04T17:30:48;18.55;;;8.48;;
34541;SDS011;20784;51.332;12.410;2023-12-04T17:37:18;14.07;;;7.65;;
34541;SDS011;20784;51.332;12.410;2023-12-04T17:44:08;22.17;;;9.07;;
34541;SDS011;20784;51.332;12.410;2023-12-04T17:46:44;22.65;;;9.35;;
34541;SDS011;20784;51.332;12.410;2023-12-04T17:55:54;17.10;;;9.55;;
34541;SDS011;20784;51.332;12.410;2023-12-04T18:01:58;19.30;;;8.87;;
34541;SDS011;20784;51.332;12.410;2023-12-04T18:04:36;19.58;;;9.73;;
34541;SDS011;20784;51.332;12.410;2023-12-04T18:07:28;15.05;;;8.50;;
34541;SDS011;20784;51.332;12.410;2023-12-04T18:10:03;17.65;;;8.80;;
34541;SDS011;20784;51.332;12.410;2023-12-04T18:12:29;19.23;;;8.45;;
34541;SDS011;20784;51.332;12.410;2023-12-04T18:15:33;21.05;;;9.32;;
34541;SDS011;20784;51.332;12.410;2023-12-04T18:18:32;16.42;;;8.48;;
34541;SDS011;20784;51.332;12.410;2023-12-04T18:21:28;18.63;;;9.07;;
34541;SDS011;20784;51.332;12.410;2023-12-04T18:23:55;14.68;;;7.95;;
34541;SDS011;20784;51.332;12.410;2023-12-04T18:26:21;21.20;;;10.57;;
34541;SDS011;20784;51.332;12.410;2023-12-04T18:28:47;16.52;;;8.80;;
34541;SDS011;20784;51.332;12.410;2023-12-04T18:31:18;15.13;;;7.78;;
34541;SDS011;20784;51.332;12.410;2023-12-04T18:33:44;16.58;;;9.18;;
34541;SDS011;20784;51.332;12.410;2023-12-04T18:36:12;17.48;;;9.00;;
34541;SDS011;20784;51.332;12.410;2023-12-04T18:38:44;16.63;;;8.65;;
34541;SDS011;20784;51.332;12.410;2023-12-04T18:41:14;17.15;;;8.68;;
34541;SDS011;20784;51.332;12.410;2023-12-04T18:43:40;13.93;;;7.85;;
34541;SDS011;20784;51.332;12.410;2023-12-04T18:46:12;16.60;;;7.93;;
34541;SDS011;20784;51.332;12.410;2023-12-04T18:48:39;16.30;;;7.65;;
34541;SDS011;20784;51.332;12.410;2023-12-04T18:51:09;15.68;;;7.70;;
34541;SDS011;20784;51.332;12.410;2023-12-04T18:53:39;16.20;;;8.63;;
34541;SDS011;20784;51.332;12.410;2023-12-04T18:56:14;18.30;;;9.07;;
34541;SDS011;20784;51.332;12.410;2023-12-04T18:58:56;22.52;;;11.48;;
34541;SDS011;20784;51.332;12.410;2023-12-04T19:01:26;14.25;;;7.72;;
34541;SDS011;20784;51.332;12.410;2023-12-04T19:04:04;15.20;;;7.85;;
34541;SDS011;20784;51.332;12.410;2023-12-04T19:06:33;14.23;;;7.50;;
34541;SDS011;20784;51.332;12.410;2023-12-04T19:09:01;15.60;;;7.55;;
34541;SDS011;20784;51.332;12.410;2023-12-04T19:11:32;13.38;;;7.18;;
34541;SDS011;20784;51.332;12.410;2023-12-04T19:13:58;13.90;;;6.80;;
34541;SDS011;20784;51.332;12.410;2023-12-04T19:16:24;18.05;;;7.85;;
34541;SDS011;20784;51.332;12.410;2023-12-04T19:18:53;14.68;;;6.72;;
34541;SDS011;20784;51.332;12.410;2023-12-04T19:21:29;13.90;;;6.75;;
34541;SDS011;20784;51.332;12.410;2023-12-04T19:23:55;12.23;;;7.30;;
34541;SDS011;20784;51.332;12.410;2023-12-04T19:26:23;15.82;;;7.47;;
34541;SDS011;20784;51.332;12.410;2023-12-04T19:28:59;13.93;;;7.60;;
34541;SDS011;20784;51.332;12.410;2023-12-04T19:31:27;13.90;;;7.13;;
34541;SDS011;20784;51.332;12.410;2023-12-04T19:33:55;15.55;;;7.57;;
34541;SDS011;20784;51.332;12.410;2023-12-04T19:36:28;14.32;;;7.65;;
34541;SDS011;20784;51.332;12.410;2023-12-04T19:38:57;16.60;;;8.45;;
34541;SDS011;20784;51.332;12.410;2023-12-04T19:41:31;17.45;;;7.53;;
34541;SDS011;20784;51.332;12.410;2023-12-04T19:43:59;14.38;;;7.05;;
34541;SDS011;20784;51.332;12.410;2023-12-04T19:46:41;14.90;;;8.20;;
34541;SDS011;20784;51.332;12.410;2023-12-04T19:49:08;14.02;;;7.85;;
34541;SDS011;20784;51.332;12.410;2023-12-04T19:51:42;17.20;;;9.10;;
34541;SDS011;20784;51.332;12.410;2023-12-04T19:54:11;14.10;;;8.15;;
34541;SDS011;20784;51.332;12.410;2023-12-04T19:56:44;15.98;;;8.25;;
34541;SDS011;20784;51.332;12.410;2023-12-04T19:59:14;17.30;;;8.50;;
34541;SDS011;20784;51.332;12.410;2023-12-04T20:01:40;18.38;;;9.07;;
34541;SDS011;20784;51.332;12.410;2023-12-04T20:04:06;14.90;;;8.05;;
34541;SDS011;20784;51.332;12.410;2023-12-04T20:06:32;14.52;;;7.65;;
34541;SDS011;20784;51.332;12.410;2023-12-04T20:09:25;16.08;;;8.43;;
34541;SDS011;20784;51.332;12.410;2023-12-04T20:11:50;18.25;;;9.30;;
34541;SDS011;20784;51.332;12.410;2023-12-04T20:14:26;17.55;;;9.85;;
34541;SDS011;20784;51.332;12.410;2023-12-04T20:17:36;17.02;;;8.95;;
34541;SDS011;20784;51.332;12.410;2023-12-04T20:20:27;16.33;;;8.90;;
34541;SDS011;20784;51.332;12.410;2023-12-04T20:23:29;15.18;;;8.30;;
34541;SDS011;20784;51.332;12.410;2023-12-04T20:26:02;17.42;;;9.30;;
34541;SDS011;20784;51.332;12.410;2023-12-04T20:28:37;15.55;;;8.55;;
34541;SDS011;20784;51.332;12.410;2023-12-04T20:31:33;19.45;;;9.65;;
34541;SDS011;20784;51.332;12.410;2023-12-04T20:34:05;20.88;;;11.75;;
34541;SDS011;20784;51.332;12.410;2023-12-04T20:36:53;16.83;;;9.43;;
34541;SDS011;20784;51.332;12.410;2023-12-04T20:42:13;19.60;;;10.52;;
34541;SDS011;20784;51.332;12.410;2023-12-04T20:44:42;18.52;;;10.80;;
34541;SDS011;20784;51.332;12.410;2023-12-04T20:47:11;22.25;;;10.90;;
34541;SDS011;20784;51.332;12.410;2023-12-04T20:52:31;23.98;;;10.55;;
34541;SDS011;20784;51.332;12.410;2023-12-04T20:55:05;19.10;;;10.32;;
34541;SDS011;20784;51.332;12.410;2023-12-04T21:00:38;17.98;;;10.07;;
34541;SDS011;20784;51.332;12.410;2023-12-04T21:03:12;19.17;;;10.18;;
34541;SDS011;20784;51.332;12.410;2023-12-04T21:05:51;17.85;;;9.00;;
34541;SDS011;20784;51.332;12.410;2023-12-04T21:08:26;19.38;;;9.93;;
34541;SDS011;20784;51.332;12.410;2023-12-04T21:10:52;17.25;;;9.73;;
34541;SDS011;20784;51.332;12.410;2023-12-04T21:13:17;19.23;;;9.75;;
34541;SDS011;20784;51.332;12.410;2023-12-04T21:15:46;17.52;;;9.57;;
34541;SDS011;20784;51.332;12.410;2023-12-04T21:18:19;20.58;;;10.02;;
34541;SDS011;20784;51.332;12.410;2023-12-04T21:20:55;18.27;;;9.95;;
34541;SDS011;20784;51.332;12.410;2023-12-04T21:23:48;19.75;;;9.98;;
34541;SDS011;20784;51.332;12.410;2023-12-04T21:29:12;19.50;;;11.10;;
34541;SDS011;20784;51.332;12.410;2023-12-04T21:34:21;18.15;;;10.30;;
34541;SDS011;20784;51.332;12.410;2023-12-04T21:39:18;18.33;;;9.55;;
34541;SDS011;20784;51.332;12.410;2023-12-04T21:41:44;19.17;;;10.93;;
34541;SDS011;20784;51.332;12.410;2023-12-04T21:44:10;17.60;;;10.27;;
34541;SDS011;20784;51.332;12.410;2023-12-04T21:46:38;25.05;;;10.88;;
34541;SDS011;20784;51.332;12.410;2023-12-04T21:49:06;22.67;;;11.50;;
34541;SDS011;20784;51.332;12.410;2023-12-04T21:51:32;20.73;;;10.05;;
34541;SDS011;20784;51.332;12.410;2023-12-04T21:53:58;19.50;;;10.20;;
34541;SDS011;20784;51.332;12.410;2023-12-04T21:56:25;20.13;;;10.65;;
34541;SDS011;20784;51.332;12.410;2023-12-04T21:58:50;22.35;;;11.70;;
34541;SDS011;20784;51.332;12.410;2023-12-04T22:01:18;21.90;;;11.38;;
34541;SDS011;20784;51.332;12.410;2023-12-04T22:03:44;21.00;;;10.50;;
34541;SDS011;20784;51.332;12.410;2023-12-04T22:06:12;20.65;;;10.60;;
34541;SDS011;20784;51.332;12.410;2023-12-04T22:08:41;20.40;;;10.35;;
34541;SDS011;20784;51.332;12.410;2023-12-04T22:11:07;23.27;;;11.68;;